createdAt,value
2022-12-03T00:00:15.514Z,100125.88
2022-12-03T00:03:02.835Z,100123.16
2022-12-03T00:05:30.291Z,100117.22
2022-12-03T00:07:57.404Z,100121.19
2022-12-03T00:10:24.911Z,100117.06
2022-12-03T00:12:52.474Z,100119.50
2022-12-03T00:15:23.449Z,100109.78
2022-12-03T00:17:50.828Z,100107.38
2022-12-03T00:20:21.513Z,100108.72
2022-12-03T00:22:48.705Z,100106.13
2022-12-03T00:25:16.580Z,100107.97
2022-12-03T00:27:43.825Z,100105.25
2022-12-03T00:30:14.858Z,100102.78
2022-12-03T00:32:42.227Z,100113.44
2022-12-03T00:35:09.981Z,100117.38
2022-12-03T00:37:37.040Z,100110.72
2022-12-03T00:40:06.237Z,100107.97
2022-12-03T00:42:33.500Z,100109.94
2022-12-03T00:45:00.963Z,100114.66
2022-12-03T00:47:28.261Z,100109.19
2022-12-03T00:49:55.520Z,100111.47
2022-12-03T00:52:24.716Z,100118.47
2022-12-03T00:54:52.316Z,100115.28
2022-12-03T00:57:19.546Z,100118.91
2022-12-03T00:59:47.079Z,100119.50
2022-12-03T01:02:14.204Z,100122.56
2022-12-03T01:04:42.182Z,100124.97
2022-12-03T01:07:09.258Z,100128.63
2022-12-03T01:09:36.558Z,100118.00
2022-12-03T01:12:03.617Z,100121.78
2022-12-03T01:14:31.331Z,100114.50
2022-12-03T01:16:58.392Z,100119.03
2022-12-03T01:19:25.951Z,100125.59
2022-12-03T01:21:52.942Z,100122.84
2022-12-03T01:24:20.594Z,100126.22
2022-12-03T01:26:47.620Z,100123.91
2022-12-03T01:29:15.013Z,100124.38
2022-12-03T01:32:04.041Z,100125.91
2022-12-03T01:34:31.599Z,100123.47
2022-12-03T01:36:59.001Z,100120.75
2022-12-03T01:39:26.321Z,100122.72
2022-12-03T01:41:54.703Z,100113.75
2022-12-03T01:44:28.514Z,100117.69
2022-12-03T01:46:58.416Z,100117.69
2022-12-03T01:49:31.531Z,100114.97
2022-12-03T01:51:59.537Z,100113.44
2022-12-03T01:54:35.970Z,100120.44
2022-12-03T01:57:03.549Z,100111.00
2022-12-03T01:59:38.710Z,100112.38
2022-12-03T02:02:13.570Z,100113.13
2022-12-03T02:04:41.385Z,100107.66
2022-12-03T02:07:22.566Z,100106.16
2022-12-03T02:09:52.299Z,100110.84
2022-12-03T02:12:24.947Z,100107.81
2022-12-03T02:14:53.825Z,100108.88
2022-12-03T02:17:21.216Z,100110.22
2022-12-03T02:19:49.076Z,100113.13
2022-12-03T02:22:31.205Z,100116.63
2022-12-03T02:25:07.527Z,100121.16
2022-12-03T02:27:34.518Z,100117.69
2022-12-03T02:30:01.986Z,100114.19
2022-12-03T02:32:28.936Z,100117.25
2022-12-03T02:34:56.717Z,100118.28
2022-12-03T02:37:29.666Z,100119.97
2022-12-03T02:40:03.156Z,100126.19
2022-12-03T02:42:36.585Z,100117.53
2022-12-03T02:45:12.962Z,100110.53
2022-12-03T02:47:46.933Z,100127.56
2022-12-03T02:50:20.368Z,100111.16
2022-12-03T02:52:48.616Z,100120.13
2022-12-03T02:55:17.924Z,100115.84
2022-12-03T02:57:48.303Z,100113.44
2022-12-03T03:00:17.141Z,100117.53
2022-12-03T03:02:46.477Z,100113.72
2022-12-03T03:05:17.601Z,100112.19
2022-12-03T03:07:45.114Z,100104.59
2022-12-03T03:10:15.539Z,100108.69
2022-12-03T03:12:42.795Z,100106.88
2022-12-03T03:15:11.693Z,100110.69
2022-12-03T03:17:39.517Z,100111.59
2022-12-03T03:20:08.242Z,100110.69
2022-12-03T03:22:41.741Z,100101.25
2022-12-03T03:25:12.699Z,100107.03
2022-12-03T03:27:43.390Z,100105.38
2022-12-03T03:30:14.261Z,100109.78
2022-12-03T03:32:42.715Z,100113.88
2022-12-03T03:35:11.038Z,100115.09
2022-12-03T03:37:39.010Z,100117.66
2022-12-03T03:40:09.498Z,100111.00
2022-12-03T03:42:37.985Z,100112.19
2022-12-03T03:45:07.291Z,100114.47
2022-12-03T03:47:34.479Z,100112.66
2022-12-03T03:50:02.439Z,100116.16
2022-12-03T03:52:30.408Z,100116.16
2022-12-03T03:55:00.357Z,100107.94
2022-12-03T03:57:29.520Z,100106.72
2022-12-03T03:59:59.263Z,100110.69
2022-12-03T04:02:27.516Z,100108.53
2022-12-03T04:04:55.304Z,100109.75
2022-12-03T04:07:22.476Z,100117.66
2022-12-03T04:09:49.702Z,100111.25
2022-12-03T04:12:35.683Z,100121.31
2022-12-03T04:15:02.942Z,100118.28
2022-12-03T04:17:29.901Z,100117.03
2022-12-03T04:19:57.187Z,100112.03
2022-12-03T04:22:42.520Z,100122.22
2022-12-03T04:25:28.829Z,100117.97
2022-12-03T04:28:14.830Z,100114.63
2022-12-03T04:30:42.209Z,100107.47
2022-12-03T04:33:30.292Z,100099.44
2022-12-03T04:36:00.753Z,100098.97
2022-12-03T04:38:27.880Z,100098.50
2022-12-03T04:41:04.217Z,100086.34
2022-12-03T04:43:34.915Z,100109.75
2022-12-03T04:46:05.926Z,100117.03
2022-12-03T04:48:32.915Z,100117.50
2022-12-03T04:51:00.184Z,100103.81
2022-12-03T04:53:29.338Z,100104.75
2022-12-03T04:55:56.635Z,100108.97
2022-12-03T04:58:23.651Z,100103.97
2022-12-03T05:00:54.183Z,100114.75
2022-12-03T05:03:21.260Z,100106.41
2022-12-03T05:05:48.911Z,100110.38
2022-12-03T05:08:15.896Z,100117.81
2022-12-03T05:10:43.326Z,100117.03
2022-12-03T05:13:10.304Z,100109.13
2022-12-03T05:15:39.925Z,100105.38
2022-12-03T05:18:06.836Z,100104.91
2022-12-03T05:20:51.470Z,100097.91
2022-12-03T05:23:20.895Z,100097.59
2022-12-03T05:25:48.250Z,100108.84
2022-12-03T05:28:15.306Z,100101.84
2022-12-03T05:30:43.247Z,100110.84
2022-12-03T05:33:10.231Z,100120.53
2022-12-03T05:35:37.499Z,100110.38
2022-12-03T05:38:04.557Z,100120.09
2022-12-03T05:40:31.848Z,100104.91
2022-12-03T05:43:01.273Z,100103.38
2022-12-03T05:45:29.634Z,100101.84
2022-12-03T05:47:57.917Z,100107.94
2022-12-03T05:50:28.007Z,100102.47
2022-12-03T05:52:55.977Z,100104.28
2022-12-03T05:55:23.694Z,100111.25
2022-12-03T05:57:50.941Z,100108.84
2022-12-03T06:00:24.408Z,100114.31
2022-12-03T06:02:52.034Z,100114.47
2022-12-03T06:05:20.382Z,100113.25
2022-12-03T06:07:48.801Z,100113.72
2022-12-03T06:10:18.800Z,100125.25
2022-12-03T06:12:48.366Z,100119.31
2022-12-03T06:15:19.108Z,100123.59
2022-12-03T06:17:46.575Z,100108.69
2022-12-03T06:20:17.408Z,100120.22
2022-12-03T06:22:44.718Z,100118.13
2022-12-03T06:25:12.640Z,100119.78
2022-12-03T06:27:39.635Z,100113.41
2022-12-03T06:30:08.925Z,100124.50
2022-12-03T06:32:36.061Z,100121.47
2022-12-03T06:35:03.520Z,100126.31
2022-12-03T06:37:30.577Z,100120.69
2022-12-03T06:39:58.577Z,100121.91
2022-12-03T06:42:25.698Z,100120.69
2022-12-03T06:44:57.661Z,100123.13
2022-12-03T06:47:24.762Z,100123.88
2022-12-03T06:49:52.085Z,100103.03
2022-12-03T06:52:22.571Z,100108.81
2022-12-03T06:54:49.871Z,100119.63
2022-12-03T06:57:16.833Z,100121.16
2022-12-03T06:59:44.113Z,100116.25
2022-12-03T07:02:12.648Z,100124.47
2022-12-03T07:04:46.255Z,100139.84
2022-12-03T07:07:14.045Z,100134.81
2022-12-03T07:09:41.339Z,100114.75
2022-12-03T07:12:08.297Z,100138.16
2022-12-03T07:14:35.557Z,100134.38
2022-12-03T07:17:02.575Z,100133.75
2022-12-03T07:19:32.730Z,100127.03
2022-12-03T07:22:00.797Z,100129.78
2022-12-03T07:24:30.373Z,100124.59
2022-12-03T07:26:57.430Z,100131.59
2022-12-03T07:29:24.792Z,100137.38
2022-12-03T07:31:51.898Z,100117.91
2022-12-03T07:34:19.311Z,100141.94
2022-12-03T07:36:46.373Z,100117.91
2022-12-03T07:39:14.028Z,100131.88
2022-12-03T07:41:41.090Z,100126.41
2022-12-03T07:44:14.057Z,100130.84
2022-12-03T07:46:44.446Z,100121.09
2022-12-03T07:49:12.438Z,100128.84
2022-12-03T07:51:42.961Z,100118.97
2022-12-03T07:54:10.306Z,100126.09
2022-12-03T07:56:37.454Z,100123.53
2022-12-03T07:59:05.034Z,100124.16
2022-12-03T08:01:34.835Z,100120.94
2022-12-03T08:04:02.415Z,100116.41
2022-12-03T08:06:29.472Z,100125.06
2022-12-03T08:08:57.031Z,100137.66
2022-12-03T08:11:24.078Z,100133.25
2022-12-03T08:13:51.341Z,100138.28
2022-12-03T08:16:20.491Z,100131.56
2022-12-03T08:18:49.560Z,100133.09
2022-12-03T08:21:19.367Z,100146.94
2022-12-03T08:23:47.398Z,100147.38
2022-12-03T08:26:20.894Z,100145.41
2022-12-03T08:28:50.928Z,100148.59
2022-12-03T08:31:26.838Z,100147.03
2022-12-03T08:34:15.683Z,100147.81
2022-12-03T08:36:47.034Z,100144.31
2022-12-03T08:39:30.512Z,100155.25
2022-12-03T08:42:27.782Z,100141.13
2022-12-03T08:45:28.145Z,100147.34
2022-12-03T08:47:59.888Z,100143.41
2022-12-03T08:50:40.380Z,100141.06
2022-12-03T08:53:29.375Z,100142.78
2022-12-03T08:56:20.776Z,100148.81
2022-12-03T08:58:52.513Z,100143.66
2022-12-03T09:01:47.263Z,100147.00
2022-12-03T09:04:36.189Z,100150.34
2022-12-03T09:07:03.540Z,100149.09
2022-12-03T09:09:30.554Z,100148.16
2022-12-03T09:11:58.055Z,100144.22
2022-12-03T09:14:25.107Z,100144.53
2022-12-03T09:16:56.148Z,100149.25
2022-12-03T09:19:25.340Z,100143.59
2022-12-03T09:21:54.171Z,100146.03
2022-12-03T09:24:21.407Z,100137.50
2022-12-03T09:26:48.936Z,100133.56
2022-12-03T09:29:16.203Z,100132.63
2022-12-03T09:31:43.966Z,100137.81
2022-12-03T09:34:11.458Z,100129.72
2022-12-03T09:36:38.891Z,100134.16
2022-12-03T09:39:05.941Z,100137.47
2022-12-03T09:41:33.415Z,100139.28
2022-12-03T09:44:04.463Z,100136.09
2022-12-03T09:46:35.633Z,100144.66
2022-12-03T09:49:04.087Z,100134.78
2022-12-03T09:51:35.740Z,100124.75
2022-12-03T09:54:05.566Z,100127.06
2022-12-03T09:56:37.731Z,100127.22
2022-12-03T09:59:15.424Z,100128.28
2022-12-03T10:01:43.196Z,100115.22
2022-12-03T10:04:10.715Z,100120.53
2022-12-03T10:06:45.252Z,100108.34
2022-12-03T10:09:24.653Z,100112.97
2022-12-03T10:11:52.392Z,100120.25
2022-12-03T10:14:20.229Z,100116.56
2022-12-03T10:16:48.552Z,100109.25
2022-12-03T10:19:27.567Z,100121.56
2022-12-03T10:21:55.763Z,100129.47
2022-12-03T10:24:31.751Z,100115.03
2022-12-03T10:27:04.233Z,100105.72
2022-12-03T10:29:34.810Z,100119.88
2022-12-03T10:32:10.509Z,100117.72
2022-12-03T10:34:45.443Z,100111.66
2022-12-03T10:37:23.819Z,100113.81
2022-12-03T10:40:01.614Z,100107.72
2022-12-03T10:42:31.581Z,100116.25
2022-12-03T10:45:23.350Z,100122.31
2022-12-03T10:48:11.230Z,100110.75
2022-12-03T10:50:47.339Z,100120.69
2022-12-03T10:53:15.003Z,100122.31
2022-12-03T10:55:44.320Z,100110.13
2022-12-03T10:58:35.004Z,100110.72
2022-12-03T11:01:13.393Z,100102.34
2022-12-03T11:03:41.011Z,100090.75
2022-12-03T11:06:15.456Z,100092.19
2022-12-03T11:08:45.271Z,100090.53
2022-12-03T11:11:20.146Z,100089.00
2022-12-03T11:13:50.789Z,100077.41
2022-12-03T11:16:39.875Z,100083.63
2022-12-03T11:19:17.474Z,100077.06
2022-12-03T11:22:06.508Z,100081.97
2022-12-03T11:24:38.664Z,100073.44
2022-12-03T11:27:12.981Z,100078.75
2022-12-03T11:29:52.554Z,100069.38
2022-12-03T11:32:38.064Z,100063.44
2022-12-03T11:35:23.625Z,100066.00
2022-12-03T11:37:51.173Z,100071.94
2022-12-03T11:40:18.441Z,100053.50
2022-12-03T11:42:49.793Z,100063.06
2022-12-03T11:45:23.351Z,100056.81
2022-12-03T11:47:59.440Z,100059.09
2022-12-03T11:50:51.121Z,100054.56
2022-12-03T11:53:24.928Z,100055.09
2022-12-03T11:56:10.406Z,100052.47
2022-12-03T11:58:43.224Z,100049.91
2022-12-03T12:01:12.695Z,100051.28
2022-12-03T12:03:49.226Z,100053.56
2022-12-03T12:06:24.126Z,100064.06
2022-12-03T12:08:51.377Z,100053.97
2022-12-03T12:11:31.012Z,100044.97
2022-12-03T12:14:02.183Z,100041.63
2022-12-03T12:17:03.244Z,100045.63
2022-12-03T12:19:42.611Z,100038.00
2022-12-03T12:22:25.368Z,100033.09
2022-12-03T12:24:56.267Z,100030.19
2022-12-03T12:27:32.025Z,100039.50
2022-12-03T12:30:02.580Z,100039.69
2022-12-03T12:32:50.831Z,100033.94
2022-12-03T12:35:25.420Z,100026.44
2022-12-03T12:38:11.369Z,100017.50
2022-12-03T12:40:40.600Z,100023.72
2022-12-03T12:43:15.239Z,100026.16
2022-12-03T12:45:45.486Z,100021.25
2022-12-03T12:48:12.807Z,100024.28
2022-12-03T12:50:44.411Z,100008.44
2022-12-03T12:53:44.272Z,100014.97
2022-12-03T12:56:28.253Z,100009.94
2022-12-03T12:58:59.375Z,100009.47
2022-12-03T13:01:31.763Z,100011.00
2022-12-03T13:03:59.732Z,100011.84
2022-12-03T13:06:31.102Z,100016.41
2022-12-03T13:09:01.205Z,100011.31
2022-12-03T13:11:42.317Z,100020.72
2022-12-03T13:14:17.226Z,100011.66
2022-12-03T13:16:44.823Z,100017.41
2022-12-03T13:19:21.773Z,100005.53
2022-12-03T13:21:50.359Z,100021.09
2022-12-03T13:24:43.300Z,100019.59
2022-12-03T13:27:19.771Z,100014.41
2022-12-03T13:30:02.345Z,100004.53
2022-12-03T13:32:33.622Z,100010.31
2022-12-03T13:35:13.746Z,100014.56
2022-12-03T13:37:40.842Z,100003.16
2022-12-03T13:40:28.363Z,100003.44
2022-12-03T13:42:59.526Z,99993.38
2022-12-03T13:45:43.579Z,99996.44
2022-12-03T13:48:31.804Z,99989.44
2022-12-03T13:51:11.519Z,99997.19
2022-12-03T13:53:40.479Z,99994.91
2022-12-03T13:56:29.429Z,100006.63
2022-12-03T13:59:00.179Z,99999.16
2022-12-03T14:01:30.291Z,100000.09
2022-12-03T14:03:57.449Z,99999.16
2022-12-03T14:06:26.962Z,100003.03
2022-12-03T14:08:53.960Z,100008.97
2022-12-03T14:11:39.693Z,100012.75
2022-12-03T14:14:09.248Z,100012.63
2022-12-03T14:16:38.864Z,100008.28
2022-12-03T14:19:06.419Z,100025.28
2022-12-03T14:21:33.786Z,100018.75
2022-12-03T14:24:01.096Z,100028.69
2022-12-03T14:26:28.572Z,100022.13
2022-12-03T14:28:55.554Z,100025.34
2022-12-03T14:31:22.990Z,100029.16
2022-12-03T14:33:50.280Z,100024.59
2022-12-03T14:36:17.701Z,100023.09
2022-12-03T14:38:44.696Z,100030.06
2022-12-03T14:41:31.962Z,100028.56
2022-12-03T14:43:59.166Z,100022.13
2022-12-03T14:46:29.074Z,100026.88
2022-12-03T14:48:56.199Z,100022.44
2022-12-03T14:51:23.563Z,100029.16
2022-12-03T14:53:50.734Z,100021.50
2022-12-03T14:56:19.548Z,100023.50
2022-12-03T14:58:46.567Z,100022.72
2022-12-03T15:01:14.931Z,100023.50
2022-12-03T15:03:44.152Z,100031.53
2022-12-03T15:06:17.457Z,100035.78
2022-12-03T15:08:44.911Z,100035.00
2022-12-03T15:11:14.627Z,100022.38
2022-12-03T15:13:41.616Z,100039.84
2022-12-03T15:16:09.034Z,100024.19
2022-12-03T15:18:36.215Z,100042.16
2022-12-03T15:21:03.654Z,100048.19
2022-12-03T15:23:30.813Z,100049.72
2022-12-03T15:25:58.318Z,100048.50
2022-12-03T15:28:25.628Z,100043.00
2022-12-03T15:30:53.743Z,100037.22
2022-12-03T15:33:20.870Z,100044.97
2022-12-03T15:35:50.803Z,100041.31
2022-12-03T15:38:19.077Z,100039.31
2022-12-03T15:40:46.876Z,100056.72
2022-12-03T15:43:14.572Z,100042.06
2022-12-03T15:45:42.606Z,100047.84
2022-12-03T15:48:10.045Z,100047.09
2022-12-03T15:50:40.374Z,100047.53
2022-12-03T15:53:08.112Z,100033.09
2022-12-03T15:55:38.102Z,100027.16
2022-12-03T15:58:05.391Z,100037.34
2022-12-03T16:00:32.984Z,100039.31
2022-12-03T16:03:01.359Z,100028.19
2022-12-03T16:05:28.759Z,100024.41
2022-12-03T16:07:56.183Z,100028.47
2022-12-03T16:10:23.883Z,100033.84
2022-12-03T16:12:50.968Z,100028.19
2022-12-03T16:15:22.248Z,100021.50
2022-12-03T16:17:54.496Z,100032.75
2022-12-03T16:20:22.448Z,100033.78
2022-12-03T16:22:52.172Z,100032.56
2022-12-03T16:25:20.144Z,100027.09
2022-12-03T16:27:47.728Z,100029.34
2022-12-03T16:30:15.949Z,100019.59
2022-12-03T16:32:43.611Z,100025.84
2022-12-03T16:35:12.351Z,100018.88
2022-12-03T16:37:39.566Z,100023.41
2022-12-03T16:40:10.303Z,100024.63
2022-12-03T16:46:15.889Z,100023.41
2022-12-03T16:48:47.024Z,100015.94
2022-12-03T16:51:14.470Z,100019.25
2022-12-03T16:53:45.129Z,100024.72
2022-12-03T16:56:14.280Z,100020.00
2022-12-03T16:58:42.153Z,100023.34
2022-12-03T17:01:12.817Z,100023.63
2022-12-03T17:03:41.239Z,100017.38
2022-12-03T17:06:08.522Z,100017.09
2022-12-03T17:08:36.666Z,100016.44
2022-12-03T17:11:04.231Z,100015.22
2022-12-03T17:13:32.220Z,100013.22
2022-12-03T17:16:00.929Z,100007.00
2022-12-03T17:18:29.497Z,100012.66
2022-12-03T17:20:56.700Z,100013.69
2022-12-03T17:23:24.179Z,100007.75
2022-12-03T17:25:51.683Z,100022.97
2022-12-03T17:28:19.539Z,100012.00
2022-12-03T17:30:46.978Z,100019.75
2022-12-03T17:33:16.967Z,100036.69
2022-12-03T17:35:45.859Z,100028.75
2022-12-03T17:38:13.361Z,100034.25
2022-12-03T17:40:41.638Z,100036.03
2022-12-03T17:43:09.578Z,100037.06
2022-12-03T17:45:37.562Z,100033.28
2022-12-03T17:48:05.526Z,100037.44
2022-12-03T17:50:35.490Z,100040.75
2022-12-03T17:53:06.653Z,100034.06
2022-12-03T17:55:41.282Z,100036.50
2022-12-03T17:58:13.388Z,100035.56
2022-12-03T18:00:42.796Z,100036.03
2022-12-03T18:03:10.234Z,100037.25
2022-12-03T18:05:37.268Z,100049.75
2022-12-03T18:08:05.137Z,100043.31
2022-12-03T18:10:32.494Z,100037.06
2022-12-03T18:13:02.131Z,100043.31
2022-12-03T18:15:30.406Z,100035.09
2022-12-03T18:17:58.242Z,100036.31
2022-12-03T18:20:25.789Z,100034.31
2022-12-03T18:22:53.454Z,100040.84
2022-12-03T18:25:23.265Z,100035.66
2022-12-03T18:27:50.852Z,100037.47
2022-12-03T18:30:18.876Z,100038.22
2022-12-03T18:32:46.576Z,100039.44
2022-12-03T18:35:14.099Z,100038.97
2022-12-03T18:37:44.646Z,100038.03
2022-12-03T18:40:19.164Z,100041.53
2022-12-03T18:42:48.840Z,100044.09
2022-12-03T18:45:18.054Z,100035.84
2022-12-03T18:47:46.136Z,100038.59
2022-12-03T18:50:17.569Z,100040.41
2022-12-03T18:52:47.356Z,100036.44
2022-12-03T18:55:19.248Z,100039.94
2022-12-03T18:57:46.926Z,100044.47
2022-12-03T19:00:18.074Z,100042.03
2022-12-03T19:03:02.310Z,100042.50
2022-12-03T19:05:33.605Z,100044.28
2022-12-03T19:08:03.206Z,100043.34
2022-12-03T19:10:34.163Z,100045.16
2022-12-03T19:13:04.319Z,100042.25
2022-12-03T19:15:32.480Z,100047.44
2022-12-03T19:18:00.777Z,100048.66
2022-12-03T19:20:28.678Z,100054.13
2022-12-03T19:22:56.894Z,100044.69
2022-12-03T19:25:26.704Z,100042.03
2022-12-03T19:27:56.365Z,100056.22
2022-12-03T19:30:27.981Z,100048.28
2022-12-03T19:32:59.012Z,100057.28
2022-12-03T19:35:28.460Z,100059.25
2022-12-03T19:37:56.710Z,100042.78
2022-12-03T19:40:26.946Z,100058.03
2022-12-03T19:42:58.089Z,100057.28
2022-12-03T19:45:28.134Z,100060.97
2022-12-03T19:47:59.464Z,100060.97
2022-12-03T19:50:27.584Z,100064.19
2022-12-03T19:52:55.717Z,100070.59
2022-12-03T19:55:23.957Z,100063.41
2022-12-03T19:57:56.516Z,100067.38
2022-12-03T20:00:24.034Z,100058.13
2022-12-03T20:02:52.452Z,100066.34
2022-12-03T20:05:20.389Z,100066.81
2022-12-03T20:07:49.021Z,100068.63
2022-12-03T20:10:17.033Z,100068.13
2022-12-03T20:12:45.262Z,100065.09
2022-12-03T20:15:17.109Z,100065.09
2022-12-03T20:17:45.584Z,100074.38
2022-12-03T20:20:15.988Z,100060.09
2022-12-03T20:22:46.653Z,100064.38
2022-12-03T20:25:14.847Z,100072.31
2022-12-03T20:27:43.005Z,100077.03
2022-12-03T20:30:11.916Z,100071.06
2022-12-03T20:32:45.015Z,100056.63
2022-12-03T20:35:14.049Z,100059.53
2022-12-03T20:37:42.543Z,100066.25
2022-12-03T20:40:11.789Z,100054.06
2022-12-03T20:42:41.451Z,100070.03
2022-12-03T20:45:11.363Z,100061.03
2022-12-03T20:47:39.713Z,100052.06
2022-12-03T20:50:08.195Z,100064.38
2022-12-03T20:52:36.265Z,100057.63
2022-12-03T20:55:04.505Z,100058.69
2022-12-03T20:57:32.981Z,100057.94
2022-12-03T21:00:04.091Z,100059.63
2022-12-03T21:02:32.275Z,100072.59
2022-12-03T21:05:00.146Z,100069.84
2022-12-03T21:07:31.147Z,100057.16
2022-12-03T21:09:59.179Z,100050.91
2022-12-03T21:12:27.294Z,100055.47
2022-12-03T21:14:54.529Z,100045.72
2022-12-03T21:17:22.616Z,100049.22
2022-12-03T21:19:53.109Z,100048.16
2022-12-03T21:22:20.975Z,100050.00
2022-12-03T21:24:48.364Z,100049.22
2022-12-03T21:27:21.393Z,100054.72
2022-12-03T21:29:49.288Z,100045.44
2022-12-03T21:32:17.205Z,100048.94
2022-12-03T21:34:44.279Z,100051.50
2022-12-03T21:37:13.926Z,100050.72
2022-12-03T21:39:44.196Z,100056.22
2022-12-03T21:42:18.647Z,100071.47
2022-12-03T21:45:04.824Z,100064.44
2022-12-03T21:47:37.180Z,100059.72
2022-12-03T21:50:08.573Z,100061.88
2022-12-03T21:52:36.603Z,100064.44
2022-12-03T21:55:04.143Z,100062.19
2022-12-03T21:57:32.167Z,100069.38
2022-12-03T22:00:00.253Z,100066.34
2022-12-03T22:02:30.778Z,100062.38
2022-12-03T22:04:59.342Z,100052.63
2022-12-03T22:07:26.952Z,100063.13
2022-12-03T22:09:54.239Z,100051.13
2022-12-03T22:12:21.859Z,100044.88
2022-12-03T22:14:48.852Z,100047.03
2022-12-03T22:17:16.124Z,100049.78
2022-12-03T22:19:43.108Z,100044.78
2022-12-03T22:22:10.395Z,100068.22
2022-12-03T22:24:38.703Z,100061.53
2022-12-03T22:27:06.107Z,100056.03
2022-12-03T22:29:35.608Z,100063.78
2022-12-03T22:32:03.012Z,100049.59
2022-12-03T22:34:30.037Z,100056.13
2022-12-03T22:36:59.511Z,100047.91
2022-12-03T22:39:26.480Z,100054.91
2022-12-03T22:41:54.012Z,100050.91
2022-12-03T22:44:20.999Z,100048.94
2022-12-03T22:46:48.325Z,100048.16
2022-12-03T22:49:17.801Z,100049.22
2022-12-03T22:51:50.111Z,100032.47
2022-12-03T22:54:23.560Z,100041.00
2022-12-03T22:56:51.559Z,100032.56
2022-12-03T22:59:18.675Z,100031.81
2022-12-03T23:01:45.936Z,100035.31
2022-12-03T23:04:13.095Z,100046.00
2022-12-03T23:06:43.693Z,100033.81
2022-12-03T23:09:10.911Z,100033.06
2022-12-03T23:11:38.361Z,100040.81
2022-12-03T23:14:05.496Z,100033.81
2022-12-03T23:16:33.805Z,100022.09
2022-12-03T23:19:02.537Z,100033.81
2022-12-03T23:21:32.523Z,100030.13
2022-12-03T23:24:00.732Z,100027.09
2022-12-03T23:26:28.753Z,100015.94
2022-12-03T23:28:56.510Z,100021.88
2022-12-03T23:31:32.698Z,100017.44
2022-12-03T23:34:00.123Z,100018.19
2022-12-03T23:36:29.975Z,100013.00
2022-12-03T23:38:57.122Z,100013.47
2022-12-03T23:41:24.879Z,100014.22
2022-12-03T23:43:52.575Z,100021.22
2022-12-03T23:46:25.638Z,100014.31
2022-12-03T23:48:55.125Z,100020.28
2022-12-03T23:51:24.477Z,100023.50
2022-12-03T23:53:55.753Z,100010.06
2022-12-03T23:56:29.427Z,100010.53
2022-12-03T23:58:57.791Z,100003.06
